Time;durP1;ratioP1;P1;durP2;ratioP2;P2;SDS_P1;SDS_P2;PMS_P1;PMS_P2;Temp;Humidity;BMP_temperature;BMP_pressure;BME280_temperature;BME280_humidity;BME280_pressure;Samples;Min_cycle;Max_cycle;Signal;HPM_P1;HPM_P2
2021/05/06 00:02:26;;;;;;;6.45;2.03;;;11.40;60.00;;;;;;4996946;28;20679;-70
2021/05/06 00:32:04;;;;;;;11.32;2.50;;;11.00;64.40;;;;;;4997261;28;20034;-70
2021/05/06 00:34:29;;;;;;;6.10;2.40;;;10.90;64.30;;;;;;4980167;28;20030;-70
2021/05/06 00:36:55;;;;;;;7.25;1.90;;;10.80;65.30;;;;;;4997695;28;20110;-69
2021/05/06 00:39:29;;;;;;;8.85;2.00;;;10.80;65.30;;;;;;4997001;28;20358;-69
2021/05/06 01:06:24;;;;;;;6.80;2.08;;;10.50;66.30;;;;;;4998698;28;20503;-70
2021/05/06 01:09:07;;;;;;;5.85;2.38;;;10.50;66.50;;;;;;4999570;28;20398;-70
2021/05/06 01:11:52;;;;;;;4.70;2.40;;;10.40;66.40;;;;;;5000899;28;20041;-70
2021/05/06 01:14:17;;;;;;;6.93;2.40;;;10.40;66.20;;;;;;4988405;28;20030;-70
2021/05/06 01:16:43;;;;;;;7.05;2.20;;;10.40;66.40;;;;;;4999568;28;20062;-70
2021/05/06 01:19:09;;;;;;;5.80;1.98;;;10.30;65.80;;;;;;5000457;28;20088;-70
2021/05/06 01:21:35;;;;;;;4.72;1.90;;;10.30;66.10;;;;;;4999865;28;20030;-70
2021/05/06 01:24:02;;;;;;;5.03;2.10;;;10.30;65.40;;;;;;5004545;28;20078;-70
2021/05/06 01:26:34;;;;;;;6.38;2.00;;;10.30;65.40;;;;;;4999066;28;20022;-70
2021/05/06 01:29:03;;;;;;;;;;;10.30;65.60;;;;;;4997282;28;20065;-70
2021/05/06 01:31:34;;;;;;;5.03;2.03;;;10.30;65.10;;;;;;4999796;28;19988;-70
2021/05/06 01:36:37;;;;;;;4.85;1.73;;;10.30;64.20;;;;;;4999287;28;20035;-70
2021/05/06 01:39:45;;;;;;;7.65;2.05;;;10.30;64.80;;;;;;5000217;28;20053;-70
2021/05/06 01:45:15;;;;;;;5.38;1.70;;;10.30;65.00;;;;;;4999075;28;20268;-70
2021/05/06 01:47:32;;;;;;;5.75;1.90;;;10.30;65.40;;;;;;4985760;28;20045;-70
2021/05/06 01:50:10;;;;;;;4.50;1.80;;;10.30;64.90;;;;;;4995655;28;20580;-70
2021/05/06 01:58:13;;;;;;;6.35;2.28;;;10.30;65.80;;;;;;4992333;28;20170;-70
2021/05/06 02:00:42;;;;;;;4.22;1.90;;;10.30;66.10;;;;;;4995576;28;20161;-70
2021/05/06 02:03:08;;;;;;;4.03;1.80;;;10.30;65.80;;;;;;4990842;28;20015;-70
2021/05/06 02:05:34;;;;;;;8.57;2.22;;;10.20;66.50;;;;;;4998952;28;20042;-70
2021/05/06 02:08:01;;;;;;;4.32;2.00;;;10.20;67.40;;;;;;4999809;28;20026;-70
2021/05/06 02:10:27;;;;;;;4.20;1.58;;;10.10;66.90;;;;;;4998671;28;20046;-71
2021/05/06 02:12:54;;;;;;;5.28;2.08;;;10.10;67.50;;;;;;4998914;28;20041;-70
2021/05/06 02:15:29;;;;;;;8.85;2.95;;;10.10;67.30;;;;;;4981578;28;20038;-70
2021/05/06 02:17:57;;;;;;;5.78;1.92;;;10.10;68.00;;;;;;4998823;28;20031;-70
2021/05/06 02:20:23;;;;;;;4.47;1.85;;;10.10;67.80;;;;;;4999099;28;20404;-70
2021/05/06 02:22:51;;;;;;;5.03;1.85;;;10.00;67.90;;;;;;5003122;28;20025;-71
2021/05/06 02:25:17;;;;;;;4.93;1.83;;;10.00;68.20;;;;;;4999514;28;20153;-70
2021/05/06 02:27:43;;;;;;;7.10;2.53;;;9.90;68.10;;;;;;4998518;28;20050;-71
2021/05/06 02:30:10;;;;;;;6.35;1.85;;;9.90;68.20;;;;;;4998948;28;20436;-70
2021/05/06 02:32:36;;;;;;;6.28;2.30;;;9.90;68.60;;;;;;4981882;28;20045;-70
2021/05/06 02:35:03;;;;;;;5.75;1.80;;;9.90;68.50;;;;;;4998492;28;20026;-70
2021/05/06 02:37:29;;;;;;;6.00;2.25;;;9.90;67.70;;;;;;4998554;28;20069;-71
2021/05/06 02:39:55;;;;;;;5.38;1.90;;;9.90;68.50;;;;;;4999148;28;20026;-71
2021/05/06 02:42:21;;;;;;;3.67;1.60;;;9.90;68.20;;;;;;4982549;28;20371;-71
2021/05/06 02:44:47;;;;;;;5.35;2.10;;;9.90;67.80;;;;;;4992038;28;20090;-71
2021/05/06 02:47:13;;;;;;;5.53;2.05;;;9.90;68.10;;;;;;4997215;28;20030;-71
2021/05/06 02:49:44;;;;;;;3.72;1.55;;;9.90;68.20;;;;;;4987755;28;20035;-70
2021/05/06 02:52:15;;;;;;;4.97;1.85;;;9.90;68.70;;;;;;4998597;28;20041;-71
2021/05/06 02:54:45;;;;;;;7.30;1.95;;;9.90;69.20;;;;;;4998116;28;20030;-70
2021/05/06 02:57:38;;;;;;;4.05;1.60;;;9.90;69.10;;;;;;4997399;28;20098;-70
2021/05/06 03:02:51;;;;;;;4.75;1.95;;;9.80;69.50;;;;;;4991230;28;20069;-70
2021/05/06 03:05:23;;;;;;;5.57;1.60;;;9.80;69.40;;;;;;4998703;28;20022;-70
2021/05/06 03:08:04;;;;;;;5.73;1.90;;;9.80;69.60;;;;;;4998724;28;20109;-70
2021/05/06 03:10:41;;;;;;;3.50;1.30;;;9.70;69.70;;;;;;4994352;28;20045;-70
2021/05/06 03:23:56;;;;;;;4.28;1.60;;;9.70;69.20;;;;;;4998456;28;20042;-70
2021/05/06 03:26:22;;;;;;;3.83;1.63;;;9.70;69.00;;;;;;4997401;28;20054;-70
2021/05/06 03:29:12;;;;;;;4.05;1.50;;;9.70;69.20;;;;;;4980547;28;20027;-70
2021/05/06 03:42:39;;;;;;;4.32;2.47;;;9.80;68.30;;;;;;4997285;28;20038;-70
2021/05/06 03:48:06;;;;;;;4.72;2.22;;;9.80;69.80;;;;;;4997863;28;20065;-70
2021/05/06 04:17:52;;;;;;;4.95;1.63;;;9.60;70.90;;;;;;4997684;28;20053;-70
2021/05/06 04:25:57;;;;;;;2.97;1.40;;;9.50;70.30;;;;;;5000043;28;20447;-70
2021/05/06 04:31:12;;;;;;;5.22;1.48;;;9.60;69.00;;;;;;5001327;28;20449;-70
2021/05/06 04:39:29;;;;;;;3.72;1.55;;;9.70;68.80;;;;;;4958107;28;20042;-70
2021/05/06 04:53:27;;;;;;;4.43;1.70;;;9.70;70.50;;;;;;4970315;28;20067;-70
2021/05/06 04:56:01;;;;;;;4.13;1.77;;;9.70;70.10;;;;;;4983841;28;20045;-71
2021/05/06 05:06:39;;;;;;;4.75;2.42;;;9.70;71.50;;;;;;4989050;28;20041;-71
2021/05/06 05:09:31;;;;;;;5.68;2.20;;;9.70;72.10;;;;;;5000575;28;20089;-70
2021/05/06 05:12:03;;;;;;;6.50;2.10;;;9.70;72.20;;;;;;5000505;28;20034;-71
2021/05/06 05:25:11;;;;;;;5.55;2.92;;;9.60;72.30;;;;;;5005583;28;20041;-70
2021/05/06 05:27:36;;;;;;;6.80;2.60;;;9.60;74.20;;;;;;4999900;28;20030;-71
2021/05/06 05:30:03;;;;;;;6.82;2.95;;;9.60;74.80;;;;;;5000147;28;20045;-72
2021/05/06 05:32:29;;;;;;;5.80;2.45;;;9.60;73.40;;;;;;4991215;28;20038;-72
2021/05/06 05:35:05;;;;;;;6.68;2.65;;;9.60;74.10;;;;;;4998569;28;20038;-71
2021/05/06 05:37:35;;;;;;;4.55;2.05;;;9.60;73.90;;;;;;4999511;28;20050;-72
2021/05/06 05:42:59;;;;;;;3.95;2.30;;;9.60;72.90;;;;;;5000321;28;20057;-72
2021/05/06 05:56:16;;;;;;;10.07;4.93;;;9.70;73.80;;;;;;4998263;28;20118;-72
2021/05/06 05:58:42;;;;;;;8.57;3.20;;;9.80;73.70;;;;;;4999361;28;20042;-72
2021/05/06 06:01:08;;;;;;;5.93;2.63;;;9.90;73.70;;;;;;4998101;28;20053;-72
2021/05/06 06:03:34;;;;;;;5.95;3.10;;;9.90;74.00;;;;;;4999651;28;20034;-71
2021/05/06 06:06:00;;;;;;;6.18;2.85;;;10.00;73.90;;;;;;4998120;28;20041;-71
2021/05/06 06:08:29;;;;;;;5.47;3.13;;;10.00;73.90;;;;;;4999946;28;20512;-71
2021/05/06 06:10:55;;;;;;;7.20;3.17;;;10.00;73.70;;;;;;4995605;28;20040;-71
2021/05/06 06:13:21;;;;;;;6.88;3.03;;;10.10;73.70;;;;;;4999544;28;20023;-71
2021/05/06 06:15:59;;;;;;;4.57;2.63;;;10.10;74.10;;;;;;4999018;28;20104;-71
2021/05/06 06:18:33;;;;;;;4.43;2.40;;;10.10;73.90;;;;;;4998907;28;20058;-71
2021/05/06 06:21:15;;;;;;;6.35;2.60;;;10.20;74.80;;;;;;4999166;28;20019;-71
2021/05/06 06:23:41;;;;;;;5.80;2.50;;;10.20;74.70;;;;;;4993552;28;20042;-71
2021/05/06 06:26:07;;;;;;;5.18;2.55;;;10.20;74.60;;;;;;4981266;28;20117;-72
2021/05/06 06:28:39;;;;;;;4.95;2.45;;;10.20;74.40;;;;;;4995727;28;20022;-72
2021/05/06 06:31:11;;;;;;;5.45;2.90;;;10.20;74.70;;;;;;4998967;28;20481;-72
2021/05/06 06:33:37;;;;;;;4.63;2.17;;;10.20;74.60;;;;;;4999280;28;20030;-72
2021/05/06 06:36:03;;;;;;;6.10;2.90;;;10.10;74.60;;;;;;4998719;28;20069;-72
2021/05/06 06:38:29;;;;;;;6.68;2.42;;;10.20;74.50;;;;;;4999043;28;20025;-72
2021/05/06 06:40:55;;;;;;;7.70;2.95;;;10.20;74.40;;;;;;4990910;28;20030;-72
2021/05/06 06:43:21;;;;;;;5.22;3.10;;;10.20;74.70;;;;;;4996035;28;20026;-72
2021/05/06 06:45:47;;;;;;;5.47;3.00;;;10.30;75.40;;;;;;4999146;28;20050;-72
2021/05/06 06:48:13;;;;;;;6.40;2.95;;;10.30;75.90;;;;;;4998768;28;20029;-72
2021/05/06 06:50:40;;;;;;;12.57;5.50;;;10.30;75.80;;;;;;4998821;28;20026;-71
2021/05/06 06:53:07;;;;;;;7.93;4.53;;;10.40;75.10;;;;;;4998327;28;20026;-73
2021/05/06 06:55:33;;;;;;;9.30;4.03;;;10.40;74.50;;;;;;4994664;28;20019;-73
2021/05/06 06:58:12;;;;;;;5.55;3.22;;;10.50;74.50;;;;;;4996668;28;20022;-72
2021/05/06 07:00:43;;;;;;;7.68;4.15;;;10.50;74.70;;;;;;4981091;28;20045;-73
2021/05/06 07:03:09;;;;;;;7.35;4.38;;;10.50;74.70;;;;;;4998682;28;20014;-72
2021/05/06 07:05:35;;;;;;;8.80;4.80;;;10.50;75.20;;;;;;4998771;28;20023;-73
2021/05/06 07:08:19;;;;;;;7.32;4.80;;;10.60;74.20;;;;;;4998663;28;20030;-72
2021/05/06 07:10:47;;;;;;;8.18;4.45;;;10.60;74.60;;;;;;4998468;28;20026;-73
2021/05/06 07:13:16;;;;;;;12.00;6.10;;;10.70;74.90;;;;;;4998544;28;20026;-73
2021/05/06 07:15:48;;;;;;;8.25;4.90;;;10.70;74.40;;;;;;4998011;28;20058;-73
2021/05/06 07:18:15;;;;;;;6.78;4.82;;;10.80;74.60;;;;;;4998589;28;20355;-73
2021/05/06 07:20:43;;;;;;;7.50;4.80;;;10.80;75.50;;;;;;4998189;28;20481;-73
2021/05/06 07:23:13;;;;;;;6.40;4.30;;;10.80;74.40;;;;;;5004488;28;20389;-73
2021/05/06 07:25:39;;;;;;;6.85;4.38;;;10.90;74.20;;;;;;5003134;28;20022;-73
2021/05/06 07:28:29;;;;;;;8.90;4.10;;;11.00;74.90;;;;;;4998327;28;20110;-73
2021/05/06 07:30:55;;;;;;;7.65;3.88;;;11.10;74.80;;;;;;4998067;28;20037;-73
2021/05/06 07:33:20;;;;;;;5.47;3.40;;;11.10;73.90;;;;;;4998408;28;20393;-73
2021/05/06 07:35:46;;;;;;;7.53;4.30;;;11.20;73.50;;;;;;4998068;28;20023;-73
2021/05/06 07:38:12;;;;;;;6.28;3.63;;;11.30;73.30;;;;;;4998230;28;20018;-73
2021/05/06 07:40:40;;;;;;;4.43;2.60;;;11.30;72.90;;;;;;4998056;28;20029;-73
2021/05/06 07:43:07;;;;;;;5.43;2.95;;;11.50;73.70;;;;;;4997884;28;20473;-73
2021/05/06 07:45:33;;;;;;;5.63;3.40;;;11.50;73.90;;;;;;4998075;28;20045;-73
2021/05/06 07:48:00;;;;;;;4.20;2.53;;;11.60;74.90;;;;;;4998153;28;20026;-73
2021/05/06 07:50:27;;;;;;;5.00;2.80;;;11.60;73.90;;;;;;4999485;28;20046;-73
2021/05/06 07:53:03;;;;;;;4.72;2.38;;;11.60;73.90;;;;;;4997948;28;20027;-73
2021/05/06 07:55:34;;;;;;;5.22;2.30;;;11.70;73.70;;;;;;4998310;28;20037;-73
2021/05/06 07:58:01;;;;;;;5.25;3.25;;;11.70;72.70;;;;;;4997665;28;20030;-73
2021/05/06 08:00:27;;;;;;;6.25;3.72;;;11.70;73.00;;;;;;4997470;28;20102;-72
2021/05/06 08:02:54;;;;;;;5.93;3.10;;;11.70;73.90;;;;;;4997878;28;20072;-72
2021/05/06 08:05:20;;;;;;;6.10;2.67;;;11.80;73.90;;;;;;4997901;28;20098;-73
2021/05/06 08:07:46;;;;;;;5.85;2.25;;;11.90;75.60;;;;;;4997739;28;20027;-73
2021/05/06 08:10:15;;;;;;;4.75;2.30;;;12.10;75.50;;;;;;4998081;28;20037;-72
2021/05/06 08:12:42;;;;;;;4.28;2.40;;;12.20;75.90;;;;;;4997732;28;20501;-72
2021/05/06 08:15:08;;;;;;;4.35;2.50;;;12.20;75.30;;;;;;4997567;28;20046;-72
2021/05/06 08:17:38;;;;;;;4.82;2.40;;;12.30;75.80;;;;;;4997679;28;20034;-72
2021/05/06 08:20:07;;;;;;;4.93;2.80;;;12.40;75.70;;;;;;4980222;28;20023;-72
2021/05/06 08:22:35;;;;;;;6.97;3.28;;;12.50;75.10;;;;;;4999004;28;21557;-72
2021/05/06 08:25:01;;;;;;;6.35;3.20;;;12.60;75.60;;;;;;5007860;28;20053;-72
2021/05/06 08:27:27;;;;;;;6.43;2.65;;;12.80;75.10;;;;;;4980195;28;20026;-73
2021/05/06 08:29:52;;;;;;;6.93;2.80;;;12.90;75.80;;;;;;4997633;28;20041;-72
2021/05/06 08:32:18;;;;;;;4.03;1.95;;;13.10;76.50;;;;;;4997638;28;20152;-73
2021/05/06 08:34:44;;;;;;;8.10;2.95;;;13.30;75.70;;;;;;4997617;28;20042;-73
2021/05/06 08:37:10;;;;;;;4.50;2.03;;;13.60;75.40;;;;;;4997438;28;20697;-73
2021/05/06 08:39:36;;;;;;;5.28;2.30;;;13.80;75.90;;;;;;4980181;28;20547;-73
2021/05/06 08:42:03;;;;;;;6.25;1.95;;;13.90;76.00;;;;;;4979768;28;20166;-73
2021/05/06 08:44:34;;;;;;;3.92;1.92;;;14.10;75.80;;;;;;4997535;28;20389;-74
2021/05/06 08:47:07;;;;;;;6.40;2.83;;;14.30;75.70;;;;;;4979959;28;20027;-73
2021/05/06 08:49:36;;;;;;;6.50;2.20;;;14.50;75.00;;;;;;4980108;28;20503;-73
2021/05/06 08:52:09;;;;;;;6.32;2.00;;;14.60;75.20;;;;;;4997909;28;20027;-74
2021/05/06 08:54:36;;;;;;;7.10;2.15;;;14.80;75.20;;;;;;4997792;28;20154;-74
2021/05/06 08:57:03;;;;;;;5.03;1.98;;;14.90;74.20;;;;;;4979853;28;20057;-74
2021/05/06 08:59:30;;;;;;;4.82;1.85;;;15.10;73.60;;;;;;4997209;28;20053;-73
2021/05/06 09:01:57;;;;;;;5.47;2.10;;;15.30;74.00;;;;;;4997595;28;20030;-73
2021/05/06 09:04:25;;;;;;;5.88;2.03;;;15.70;73.80;;;;;;4997269;28;20049;-74
2021/05/06 09:07:01;;;;;;;6.07;1.80;;;15.90;72.40;;;;;;4979914;28;20558;-74
2021/05/06 09:09:30;;;;;;;8.15;1.70;;;16.10;72.00;;;;;;4997088;28;20041;-73
2021/05/06 09:12:01;;;;;;;4.45;1.73;;;16.20;70.90;;;;;;4998520;28;20033;-72
2021/05/06 09:14:46;;;;;;;6.80;1.80;;;16.20;70.60;;;;;;5000668;28;20027;-73
2021/05/06 09:17:27;;;;;;;8.90;2.53;;;16.20;71.20;;;;;;4983432;28;20041;-73
2021/05/06 09:20:11;;;;;;;5.55;2.15;;;16.40;70.80;;;;;;5000737;28;20113;-73
2021/05/06 09:22:49;;;;;;;7.63;1.90;;;16.50;69.90;;;;;;5002870;28;20033;-73
2021/05/06 09:25:35;;;;;;;6.40;2.10;;;16.40;69.10;;;;;;5008659;28;20022;-73
2021/05/06 09:28:14;;;;;;;6.15;1.95;;;16.20;68.80;;;;;;4988616;28;20083;-73
2021/05/06 09:31:00;;;;;;;6.55;2.50;;;15.90;69.20;;;;;;5000250;28;20042;-73
2021/05/06 09:33:31;;;;;;;8.82;2.42;;;15.70;69.80;;;;;;5000023;28;20042;-73
2021/05/06 09:35:58;;;;;;;9.45;2.65;;;15.50;70.00;;;;;;5000256;28;20412;-73
2021/05/06 09:38:32;;;;;;;10.45;2.95;;;15.30;70.90;;;;;;4982610;28;20458;-73
2021/05/06 09:41:03;;;;;;;8.05;2.50;;;15.30;71.10;;;;;;4982676;28;20492;-73
2021/05/06 09:43:38;;;;;;;7.63;2.25;;;15.20;71.80;;;;;;4999961;28;20022;-72
2021/05/06 09:46:21;;;;;;;8.07;2.30;;;15.20;71.70;;;;;;4982508;28;20026;-72
2021/05/06 09:48:58;;;;;;;8.88;2.33;;;15.20;71.10;;;;;;5000090;28;20034;-73
2021/05/06 09:51:32;;;;;;;8.07;2.90;;;15.30;71.60;;;;;;5001078;28;20489;-73
2021/05/06 09:53:58;;;;;;;10.70;3.42;;;15.30;71.40;;;;;;5000016;28;20478;-73
2021/05/06 09:56:26;;;;;;;8.70;2.63;;;15.30;70.80;;;;;;4999723;28;20389;-73
2021/05/06 09:58:57;;;;;;;8.88;2.40;;;15.30;70.50;;;;;;4999806;28;20034;-73
2021/05/06 10:01:30;;;;;;;9.80;2.40;;;15.20;70.90;;;;;;4982140;28;20045;-73
2021/05/06 10:03:57;;;;;;;8.65;2.40;;;15.20;71.10;;;;;;5000070;28;20027;-72
2021/05/06 10:06:23;;;;;;;5.50;2.10;;;15.10;71.20;;;;;;4999612;28;20034;-72
2021/05/06 10:08:49;;;;;;;10.48;2.70;;;15.10;70.50;;;;;;4999733;28;20034;-73
2021/05/06 10:11:20;;;;;;;10.32;2.67;;;15.10;70.40;;;;;;4999740;28;20109;-72
2021/05/06 10:13:49;;;;;;;9.70;2.28;;;15.10;70.60;;;;;;4999584;28;20097;-72
2021/05/06 10:16:16;;;;;;;10.07;2.38;;;15.30;70.50;;;;;;4999216;28;20121;-72
2021/05/06 10:18:46;;;;;;;7.82;2.75;;;15.50;70.00;;;;;;4999671;28;20073;-72
2021/05/06 10:21:14;;;;;;;7.93;2.50;;;15.60;69.80;;;;;;4999365;28;20027;-73
2021/05/06 10:23:49;;;;;;;7.47;2.08;;;15.70;69.70;;;;;;5009996;28;20080;-72
2021/05/06 10:26:18;;;;;;;8.65;2.20;;;15.80;69.30;;;;;;4999248;28;20025;-72
2021/05/06 10:28:45;;;;;;;8.73;2.40;;;15.90;69.30;;;;;;4999172;28;20022;-72
2021/05/06 10:31:11;;;;;;;7.97;2.72;;;16.10;68.20;;;;;;4999300;28;20378;-73
2021/05/06 10:33:43;;;;;;;12.27;2.78;;;16.10;68.10;;;;;;4999186;28;20037;-72
2021/05/06 10:36:10;;;;;;;10.90;2.67;;;16.30;68.60;;;;;;4999456;28;20042;-73
2021/05/06 10:38:42;;;;;;;12.65;2.42;;;16.80;66.80;;;;;;4999173;28;20023;-72
2021/05/06 10:41:24;;;;;;;10.50;2.58;;;17.00;65.30;;;;;;4999220;28;20034;-73
2021/05/06 10:43:54;;;;;;;9.63;2.65;;;16.90;64.50;;;;;;4998753;28;20034;-73
2021/05/06 10:46:22;;;;;;;10.73;2.78;;;16.70;65.60;;;;;;4999041;28;20027;-73
2021/05/06 10:48:53;;;;;;;12.13;3.00;;;16.80;67.10;;;;;;4998777;28;20050;-73
2021/05/06 10:51:43;;;;;;;8.25;2.58;;;17.60;68.50;;;;;;5000237;28;20018;-73
2021/05/06 10:54:26;;;;;;;10.80;3.17;;;18.80;67.20;;;;;;4999020;28;20058;-74
2021/05/06 10:56:56;;;;;;;9.02;2.35;;;20.10;63.30;;;;;;4998418;28;20034;-74
2021/05/06 10:59:24;;;;;;;9.25;2.17;;;21.10;61.00;;;;;;4998924;28;20058;-74
2021/05/06 11:01:50;;;;;;;8.55;2.25;;;22.10;55.90;;;;;;4998793;28;20015;-74
2021/05/06 11:04:16;;;;;;;9.10;2.65;;;22.90;55.00;;;;;;4998665;28;20077;-74
2021/05/06 11:06:44;;;;;;;11.95;2.72;;;23.50;53.20;;;;;;4998716;28;20030;-74
2021/05/06 11:09:36;;;;;;;7.43;2.28;;;24.00;54.50;;;;;;4998684;28;20030;-74
2021/05/06 11:12:20;;;;;;;7.07;2.05;;;24.80;51.50;;;;;;4998616;28;20469;-74
2021/05/06 11:15:01;;;;;;;8.60;2.67;;;25.40;48.30;;;;;;4985831;28;20030;-74
2021/05/06 11:17:33;;;;;;;10.35;2.30;;;25.50;46.70;;;;;;4998283;28;20058;-73
2021/05/06 11:19:59;;;;;;;;;;;25.30;44.90;;;;;;4998912;28;20023;-73
2021/05/06 11:22:44;;;;;;;9.05;2.55;;;25.20;44.10;;;;;;4998780;28;19906;-74
2021/05/06 11:28:01;;;;;;;8.50;1.90;;;25.40;42.50;;;;;;4985657;28;20038;-73
2021/05/06 11:30:32;;;;;;;10.38;2.50;;;25.60;43.90;;;;;;4978351;28;20071;-74
2021/05/06 11:33:24;;;;;;;9.98;2.35;;;25.80;42.30;;;;;;4998580;28;20054;-73
2021/05/06 11:36:07;;;;;;;7.65;2.28;;;26.10;40.90;;;;;;4997575;28;20014;-73
2021/05/06 11:41:29;;;;;;;7.88;1.98;;;26.20;40.40;;;;;;4998247;28;20023;-73
2021/05/06 11:43:58;;;;;;;9.57;2.45;;;26.20;41.70;;;;;;4998263;28;20026;-73
2021/05/06 11:46:26;;;;;;;7.25;1.90;;;25.90;41.30;;;;;;4998134;28;20531;-73
2021/05/06 11:48:54;;;;;;;9.90;2.45;;;25.20;40.40;;;;;;4997909;28;20054;-73
2021/05/06 11:51:30;;;;;;;9.02;2.17;;;24.30;40.50;;;;;;4999682;28;20489;-73
2021/05/06 11:54:19;;;;;;;10.23;3.10;;;23.50;42.00;;;;;;4986297;28;20485;-73
2021/05/06 11:56:57;;;;;;;9.38;2.60;;;23.20;44.60;;;;;;4997656;28;20481;-74
2021/05/06 11:59:25;;;;;;;10.30;3.13;;;23.40;43.60;;;;;;4998078;28;20114;-73
2021/05/06 12:01:51;;;;;;;8.98;2.72;;;23.60;45.20;;;;;;4998202;28;20054;-73
2021/05/06 12:04:32;;;;;;;9.80;2.63;;;23.80;44.20;;;;;;4997917;28;20030;-73
2021/05/06 12:06:59;;;;;;;10.15;2.33;;;23.90;44.00;;;;;;4998129;28;20029;-73
2021/05/06 12:09:28;;;;;;;9.23;2.15;;;23.80;42.70;;;;;;4997821;28;20022;-73
2021/05/06 12:11:54;;;;;;;9.73;2.13;;;23.50;42.50;;;;;;4997907;28;20033;-73
2021/05/06 12:14:35;;;;;;;7.38;2.38;;;23.10;43.00;;;;;;4997720;28;20031;-73
2021/05/06 12:17:02;;;;;;;13.65;2.97;;;22.70;42.80;;;;;;4997584;28;20050;-73
2021/05/06 12:19:28;;;;;;;13.27;2.85;;;22.30;43.70;;;;;;4997704;28;20098;-73
2021/05/06 12:21:56;;;;;;;10.10;3.22;;;21.80;43.90;;;;;;4997939;28;20642;-73
2021/05/06 12:24:36;;;;;;;10.48;2.20;;;21.40;44.60;;;;;;5010061;28;20038;-73
2021/05/06 12:27:23;;;;;;;10.98;2.10;;;20.90;45.80;;;;;;4997540;28;20030;-73
2021/05/06 12:30:11;;;;;;;9.85;2.58;;;20.60;45.80;;;;;;4987581;28;20026;-73
2021/05/06 12:32:46;;;;;;;10.70;3.20;;;20.40;46.40;;;;;;4997725;28;20026;-73
2021/05/06 12:35:12;;;;;;;11.25;2.78;;;20.10;45.80;;;;;;4997855;28;20034;-73
2021/05/06 12:37:38;;;;;;;12.05;2.53;;;19.90;46.50;;;;;;4997669;28;20027;-73
2021/05/06 12:40:13;;;;;;;13.80;2.50;;;19.70;47.10;;;;;;4997617;28;20050;-72
2021/05/06 12:42:39;;;;;;;13.77;2.90;;;19.50;47.10;;;;;;4997736;28;20027;-72
2021/05/06 12:45:24;;;;;;;9.95;2.70;;;19.40;47.70;;;;;;4997271;28;20433;-73
2021/05/06 12:47:51;;;;;;;11.23;3.10;;;19.20;48.70;;;;;;5001427;28;20026;-73
2021/05/06 12:50:20;;;;;;;15.98;3.13;;;19.10;48.80;;;;;;5001999;28;20023;-73
2021/05/06 12:52:48;;;;;;;10.20;2.65;;;19.10;48.10;;;;;;5001396;28;20027;-73
2021/05/06 12:55:32;;;;;;;11.93;2.72;;;19.00;47.20;;;;;;5001076;28;20034;-72
2021/05/06 12:58:13;;;;;;;9.20;3.10;;;19.00;47.20;;;;;;5000875;28;20033;-73
2021/05/06 13:00:41;;;;;;;15.77;2.58;;;18.90;47.30;;;;;;5001193;28;20023;-72
2021/05/06 13:03:13;;;;;;;10.68;2.47;;;18.80;47.50;;;;;;5000812;28;20026;-72
2021/05/06 13:05:43;;;;;;;11.18;2.80;;;18.70;47.70;;;;;;5001090;28;20122;-72
2021/05/06 13:08:09;;;;;;;11.85;3.00;;;18.70;48.70;;;;;;5000801;28;20049;-72
2021/05/06 13:10:37;;;;;;;12.73;2.80;;;18.70;47.80;;;;;;5001036;28;20057;-72
2021/05/06 13:13:05;;;;;;;11.02;2.45;;;18.60;47.20;;;;;;4987919;28;20030;-72
2021/05/06 13:15:48;;;;;;;11.27;2.92;;;18.70;46.40;;;;;;5000590;28;20074;-72
2021/05/06 13:18:15;;;;;;;10.90;2.55;;;18.70;46.80;;;;;;4983300;28;20023;-72
2021/05/06 13:20:42;;;;;;;8.88;2.13;;;18.60;46.10;;;;;;5000698;28;20041;-72
2021/05/06 13:23:10;;;;;;;11.05;2.20;;;18.60;46.20;;;;;;4989653;28;20065;-73
2021/05/06 13:25:53;;;;;;;11.25;2.13;;;18.70;45.90;;;;;;4988056;28;20031;-73
2021/05/06 13:28:30;;;;;;;8.52;2.10;;;18.70;46.50;;;;;;5000671;28;20023;-73
2021/05/06 13:31:11;;;;;;;9.77;2.33;;;18.60;46.60;;;;;;5000277;28;20041;-72
2021/05/06 13:33:38;;;;;;;8.45;1.90;;;18.60;46.40;;;;;;5000547;28;20041;-72
2021/05/06 13:36:10;;;;;;;8.20;2.35;;;18.70;46.70;;;;;;5000465;28;20030;-72
2021/05/06 13:38:52;;;;;;;10.07;2.17;;;18.70;47.40;;;;;;5000275;28;20041;-72
2021/05/06 13:41:20;;;;;;;8.50;1.88;;;18.70;46.40;;;;;;5000338;28;20261;-72
2021/05/06 13:43:47;;;;;;;9.98;2.50;;;18.70;46.20;;;;;;4999945;28;20082;-72
2021/05/06 13:46:14;;;;;;;8.85;2.40;;;18.70;47.10;;;;;;5000140;28;20026;-72
2021/05/06 13:48:40;;;;;;;7.32;2.17;;;18.70;47.40;;;;;;4999984;28;20026;-72
2021/05/06 13:51:09;;;;;;;9.82;2.60;;;18.60;47.60;;;;;;5001658;28;20030;-72
2021/05/06 13:53:36;;;;;;;9.02;2.10;;;18.60;48.20;;;;;;4999846;28;20022;-72
2021/05/06 13:56:02;;;;;;;9.50;2.42;;;18.60;48.60;;;;;;4999907;28;20477;-72
2021/05/06 13:58:28;;;;;;;14.25;2.67;;;18.70;49.80;;;;;;4998808;28;20436;-72
2021/05/06 14:00:54;;;;;;;11.80;3.03;;;18.90;49.80;;;;;;4999942;28;20026;-73
2021/05/06 14:03:20;;;;;;;9.70;2.60;;;19.00;48.90;;;;;;4999719;28;20130;-73
2021/05/06 14:05:46;;;;;;;12.13;2.60;;;19.10;48.20;;;;;;4982296;28;20018;-73
2021/05/06 14:08:14;;;;;;;13.45;3.05;;;19.00;48.60;;;;;;4982042;28;20044;-73
2021/05/06 14:10:41;;;;;;;15.82;2.70;;;19.00;48.40;;;;;;4999867;28;20015;-72
2021/05/06 14:13:07;;;;;;;10.63;2.50;;;18.90;48.70;;;;;;4999233;28;20405;-73
2021/05/06 14:15:33;;;;;;;13.90;2.83;;;18.90;48.50;;;;;;4999487;28;20050;-73
2021/05/06 14:17:59;;;;;;;11.88;2.72;;;18.90;48.70;;;;;;4999693;28;20034;-73
2021/05/06 14:20:25;;;;;;;10.32;2.85;;;18.90;48.90;;;;;;4999678;28;20018;-73
2021/05/06 14:22:51;;;;;;;12.48;3.22;;;18.90;49.10;;;;;;5003226;28;20018;-73
2021/05/06 14:25:17;;;;;;;12.40;3.05;;;18.90;48.10;;;;;;5007330;28;20094;-73
2021/05/06 14:27:43;;;;;;;8.75;2.85;;;18.90;48.10;;;;;;4992465;28;20116;-73
2021/05/06 14:30:10;;;;;;;12.07;2.72;;;18.80;48.10;;;;;;4997442;28;20054;-73
2021/05/06 14:32:36;;;;;;;15.65;2.80;;;18.70;48.10;;;;;;4992622;28;20033;-73
2021/05/06 14:35:02;;;;;;;13.38;2.38;;;18.60;48.60;;;;;;4999396;28;20026;-73
2021/05/06 14:37:28;;;;;;;11.77;2.90;;;18.50;49.20;;;;;;4998773;28;20385;-73
2021/05/06 14:39:54;;;;;;;13.50;2.97;;;18.40;49.70;;;;;;4999511;28;20029;-75
2021/05/06 14:42:20;;;;;;;12.13;2.83;;;18.40;49.30;;;;;;4998509;28;20027;-75
2021/05/06 14:44:46;;;;;;;12.25;2.65;;;18.30;49.50;;;;;;4999028;28;20030;-75
2021/05/06 14:47:12;;;;;;;13.50;3.28;;;18.20;49.10;;;;;;4999028;28;20023;-75
2021/05/06 14:49:38;;;;;;;14.02;2.70;;;18.10;49.80;;;;;;4999826;28;20057;-75
2021/05/06 14:52:04;;;;;;;13.00;3.33;;;18.10;50.40;;;;;;4998960;28;20026;-75
2021/05/06 14:54:30;;;;;;;10.18;2.40;;;18.00;50.90;;;;;;4999000;28;20388;-75
2021/05/06 14:56:55;;;;;;;11.45;3.13;;;18.00;51.00;;;;;;4998576;28;20105;-74
2021/05/06 14:59:21;;;;;;;13.35;3.28;;;18.00;51.00;;;;;;4998568;28;20026;-75
2021/05/06 15:01:47;;;;;;;12.43;2.92;;;17.90;51.80;;;;;;4989715;28;20499;-74
2021/05/06 15:04:13;;;;;;;8.10;2.58;;;17.80;52.70;;;;;;4998557;28;20405;-74
2021/05/06 15:06:39;;;;;;;10.00;2.33;;;17.70;53.20;;;;;;4998672;28;20038;-74
2021/05/06 15:09:06;;;;;;;8.48;2.55;;;17.50;53.50;;;;;;4998388;28;20046;-75
2021/05/06 15:11:33;;;;;;;9.95;2.45;;;17.50;53.90;;;;;;4981344;28;20057;-75
2021/05/06 15:13:59;;;;;;;11.52;2.38;;;17.40;54.10;;;;;;4993231;28;20030;-75
2021/05/06 15:16:25;;;;;;;14.15;2.85;;;17.40;54.20;;;;;;4996013;28;20046;-76
2021/05/06 15:18:51;;;;;;;14.95;2.42;;;17.40;54.10;;;;;;4995678;28;20018;-76
2021/05/06 15:21:17;;;;;;;12.75;3.03;;;17.40;54.10;;;;;;4998490;28;20030;-75
2021/05/06 15:23:43;;;;;;;14.68;2.90;;;17.40;54.30;;;;;;5009266;28;20026;-75
2021/05/06 15:26:09;;;;;;;13.65;3.20;;;17.30;54.50;;;;;;4981442;28;20050;-76
2021/05/06 15:28:35;;;;;;;12.93;3.50;;;17.30;55.20;;;;;;4997963;28;20019;-75
2021/05/06 15:31:01;;;;;;;14.48;3.08;;;17.30;55.70;;;;;;4998282;28;20054;-75
2021/05/06 15:33:27;;;;;;;12.52;3.00;;;17.30;55.60;;;;;;4997862;28;20023;-76
2021/05/06 15:35:53;;;;;;;11.27;2.35;;;17.30;55.60;;;;;;4980473;28;20029;-76
2021/05/06 15:38:20;;;;;;;10.57;2.47;;;17.30;55.60;;;;;;4997956;28;20050;-76
2021/05/06 15:40:48;;;;;;;12.52;2.72;;;17.40;55.80;;;;;;4997856;28;20066;-75
2021/05/06 15:43:13;;;;;;;15.68;2.78;;;17.50;55.40;;;;;;4997881;28;20049;-74
2021/05/06 15:45:42;;;;;;;11.23;3.22;;;17.50;55.10;;;;;;4997867;28;20018;-76
2021/05/06 15:48:10;;;;;;;12.40;2.92;;;17.40;55.00;;;;;;4997893;28;20032;-75
2021/05/06 15:50:37;;;;;;;10.38;3.25;;;17.40;55.10;;;;;;4999466;28;20058;-76
2021/05/06 15:53:03;;;;;;;12.05;3.00;;;17.30;55.30;;;;;;4997508;28;20489;-76
2021/05/06 15:55:30;;;;;;;11.38;3.08;;;17.20;55.50;;;;;;4997905;28;20105;-75
2021/05/06 15:57:57;;;;;;;18.90;7.68;;;17.30;55.90;;;;;;4997731;28;20026;-76
2021/05/06 16:00:26;;;;;;;26.27;15.82;;;17.30;55.80;;;;;;4998003;28;20033;-75
2021/05/06 16:02:57;;;;;;;14.40;4.18;;;17.20;55.90;;;;;;4997713;28;20034;-75